Time;durP1;ratioP1;P1;durP2;ratioP2;P2;SDS_P1;SDS_P2;PMS_P1;PMS_P2;Temp;Humidity;BMP_temperature;BMP_pressure;BME280_temperature;BME280_humidity;BME280_pressure;Samples;Min_cycle;Max_cycle;Signal;HPM_P1;HPM_P2
2022/06/09 00:01:34;;;;;;;0.10;0.10;;;;;;;14.00;100.00;99562.94;5072810;28;20169;-76
2022/06/09 00:04:20;;;;;;;0.10;0.10;;;;;;;14.00;100.00;99561.00;5072026;28;20162;-75
2022/06/09 00:06:52;;;;;;;1.93;1.80;;;;;;;13.94;100.00;99561.63;5073021;28;20163;-73
2022/06/09 00:09:21;;;;;;;0.43;0.43;;;;;;;13.88;100.00;99563.03;5072293;28;20789;-73
2022/06/09 00:11:49;;;;;;;7.43;2.60;;;;;;;13.83;100.00;99566.06;5072094;28;20212;-75
2022/06/09 00:14:16;;;;;;;0.77;0.77;;;;;;;13.83;100.00;99560.56;5071906;28;20634;-75
2022/06/09 00:16:43;;;;;;;0.70;0.70;;;;;;;13.84;100.00;99564.91;5072529;28;20170;-73
2022/06/09 00:19:09;;;;;;;1.27;1.17;;;;;;;13.84;100.00;99565.69;5072365;28;20197;-74
2022/06/09 00:21:35;;;;;;;1.10;1.10;;;;;;;13.85;100.00;99566.50;5072230;28;20174;-76
2022/06/09 00:24:01;;;;;;;1.50;1.40;;;;;;;13.83;100.00;99560.56;5072605;28;20661;-74
2022/06/09 00:26:27;;;;;;;0.40;0.40;;;;;;;13.82;100.00;99572.69;5072374;28;20228;-74
2022/06/09 00:28:53;;;;;;;0.37;0.37;;;;;;;13.83;100.00;99566.84;5053830;28;20201;-75
2022/06/09 00:31:18;;;;;;;1.20;1.20;;;;;;;13.78;100.00;99575.38;5072496;28;20271;-73
2022/06/09 00:33:44;;;;;;;0.47;0.47;;;;;;;13.80;100.00;99575.00;5072543;28;20178;-75
2022/06/09 00:36:09;;;;;;;0.73;0.73;;;;;;;13.81;100.00;99571.09;5072076;28;20179;-74
2022/06/09 00:38:34;;;;;;;1.90;1.80;;;;;;;13.83;100.00;99580.59;5071758;28;20182;-75
2022/06/09 00:41:00;;;;;;;0.33;0.33;;;;;;;13.78;100.00;99586.34;5071729;28;20562;-73
2022/06/09 00:43:30;;;;;;;2.87;1.33;;;;;;;13.76;100.00;99591.41;5072067;28;20221;-74
2022/06/09 00:46:01;;;;;;;1.00;1.00;;;;;;;13.77;100.00;99583.97;5072077;28;20179;-75
2022/06/09 00:48:41;;;;;;;0.70;0.70;;;;;;;13.75;100.00;99580.78;5053538;28;20244;-75
2022/06/09 00:51:22;;;;;;;0.30;0.30;;;;;;;13.75;100.00;99583.53;5071640;28;20181;-75
2022/06/09 00:53:51;;;;;;;1.90;1.80;;;;;;;13.72;100.00;99578.72;5072201;28;20201;-76
2022/06/09 00:56:17;;;;;;;1.10;1.10;;;;;;;13.72;100.00;99590.47;5072398;28;20181;-76
2022/06/09 00:58:46;;;;;;;15.93;3.57;;;;;;;13.69;100.00;99580.22;5071120;28;20539;-73
2022/06/09 01:01:15;;;;;;;3.07;2.87;;;;;;;13.64;100.00;99575.78;5071538;28;20170;-74
2022/06/09 01:04:02;;;;;;;1.63;1.53;;;;;;;13.61;100.00;99583.94;5071359;28;20261;-74
2022/06/09 01:06:33;;;;;;;1.73;1.63;;;;;;;13.58;100.00;99587.38;5071337;28;20189;-74
2022/06/09 01:09:11;;;;;;;2.30;2.20;;;;;;;13.57;100.00;99583.84;5071325;28;20626;-74
2022/06/09 01:11:37;;;;;;;1.60;1.50;;;;;;;13.55;100.00;99586.13;5070813;28;20584;-73
2022/06/09 01:14:03;;;;;;;2.67;2.57;;;;;;;13.57;100.00;99591.28;5071830;28;20178;-73
2022/06/09 01:16:49;;;;;;;5.07;4.57;;;;;;;13.55;100.00;99594.38;5071263;28;20178;-75
2022/06/09 01:19:39;;;;;;;2.97;2.80;;;;;;;13.56;100.00;99592.41;5070855;28;20182;-73
2022/06/09 01:22:16;;;;;;;3.20;1.90;;;;;;;13.59;100.00;99600.75;5071159;28;20171;-72
2022/06/09 01:25:03;;;;;;;2.20;2.07;;;;;;;13.57;100.00;99589.31;5071724;28;20170;-74
2022/06/09 01:27:31;;;;;;;29.20;3.10;;;;;;;13.59;100.00;99597.19;5080338;28;20162;-73
2022/06/09 01:30:14;;;;;;;1.20;1.20;;;;;;;13.58;100.00;99596.41;5057552;28;20194;-72
2022/06/09 01:32:53;;;;;;;2.00;1.90;;;;;;;13.57;100.00;99599.50;5072449;28;20245;-71
2022/06/09 01:35:52;;;;;;;1.77;1.50;;;;;;;13.57;100.00;99599.50;5071622;28;20170;-73
2022/06/09 01:38:17;;;;;;;3.50;3.20;;;;;;;13.55;100.00;99597.13;5070978;28;20166;-74
2022/06/09 01:40:42;;;;;;;9.23;5.47;;;;;;;13.52;100.00;99595.06;5070941;28;20508;-73
2022/06/09 01:43:08;;;;;;;5.33;4.77;;;;;;;13.51;100.00;99593.47;5070992;28;20181;-72
2022/06/09 01:45:54;;;;;;;16.10;3.77;;;;;;;13.52;100.00;99600.56;5070974;28;20198;-74
2022/06/09 01:48:24;;;;;;;2.47;2.10;;;;;;;13.51;100.00;99590.75;5070484;28;20183;-74
2022/06/09 01:50:53;;;;;;;5.03;4.63;;;;;;;13.48;100.00;99605.16;5070864;28;20718;-72
2022/06/09 01:53:31;;;;;;;2.10;2.00;;;;;;;13.45;100.00;99600.38;5070747;28;20183;-73
2022/06/09 01:56:03;;;;;;;4.37;4.07;;;;;;;13.45;100.00;99602.31;5070836;28;20198;-74
2022/06/09 01:58:35;;;;;;;14.37;3.90;;;;;;;13.44;100.00;99604.25;5070509;28;20236;-72
2022/06/09 02:01:02;;;;;;;2.47;2.27;;;;;;;13.46;100.00;99603.94;5070703;28;20217;-73
2022/06/09 02:03:33;;;;;;;7.93;2.50;;;;;;;13.43;100.00;99605.41;5070578;28;20270;-73
2022/06/09 02:06:01;;;;;;;3.13;2.90;;;;;;;13.43;100.00;99604.63;5070622;28;20180;-73
2022/06/09 02:08:29;;;;;;;0.40;0.40;;;;;;;13.45;100.00;99608.59;5070275;28;20340;-73
2022/06/09 02:10:57;;;;;;;1.67;1.57;;;;;;;13.48;100.00;99607.13;5070525;28;20166;-73
2022/06/09 02:13:31;;;;;;;0.83;0.83;;;;;;;13.49;100.00;99612.25;5069315;28;20175;-74
2022/06/09 02:16:01;;;;;;;2.20;2.10;;;;;;;13.52;100.00;99617.03;5070451;28;20186;-73
2022/06/09 02:18:29;;;;;;;6.50;1.40;;;;;;;13.54;100.00;99611.97;5070348;28;20171;-74
2022/06/09 02:21:19;;;;;;;0.97;0.93;;;;;;;13.55;100.00;99613.59;5070574;28;20171;-72
2022/06/09 02:23:47;;;;;;;0.10;0.10;;;;;;;13.57;100.00;99615.97;5069861;28;20257;-74
2022/06/09 02:26:14;;;;;;;0.10;0.10;;;;;;;13.62;100.00;99616.53;5063507;28;20194;-73
2022/06/09 02:28:39;;;;;;;0.00;0.00;;;;;;;13.66;100.00;99614.66;5069053;28;20250;-74
2022/06/09 02:31:05;;;;;;;0.00;0.00;;;;;;;13.62;100.00;99629.47;5070519;28;20176;-74
2022/06/09 02:33:31;;;;;;;0.00;0.00;;;;;;;13.63;100.00;99623.63;5070188;28;20236;-72
2022/06/09 02:35:56;;;;;;;0.10;0.10;;;;;;;13.57;100.00;99624.22;5070643;28;20178;-75
2022/06/09 02:38:22;;;;;;;0.00;0.00;;;;;;;13.58;100.00;99618.34;5072638;28;20577;-75
2022/06/09 02:40:49;;;;;;;0.00;0.00;;;;;;;13.60;100.00;99624.31;5074198;28;20174;-73
2022/06/09 02:43:15;;;;;;;0.00;0.00;;;;;;;13.56;100.00;99628.91;5074226;28;20785;-77
2022/06/09 02:45:41;;;;;;;3.00;2.73;;;;;;;13.62;100.00;99630.25;5074236;28;20170;-72
2022/06/09 02:48:07;;;;;;;2.43;2.23;;;;;;;13.64;100.00;99627.94;5073680;28;20229;-74
2022/06/09 02:50:33;;;;;;;0.67;0.67;;;;;;;13.64;100.00;99632.66;5074231;28;20230;-74
2022/06/09 02:52:59;;;;;;;3.37;3.17;;;;;;;13.62;100.00;99629.47;5073931;28;20535;-76
2022/06/09 02:55:25;;;;;;;2.67;2.47;;;;;;;13.56;100.00;99637.13;5056020;28;20206;-75
2022/06/09 02:57:51;;;;;;;1.00;1.00;;;;;;;13.53;100.00;99637.03;5073570;28;20178;-76
2022/06/09 03:00:16;;;;;;;3.40;3.10;;;;;;;13.55;100.00;99632.00;5073981;28;20204;-74
2022/06/09 03:02:49;;;;;;;2.00;1.73;;;;;;;13.54;100.00;99635.88;5073866;28;20649;-76
2022/06/09 03:05:16;;;;;;;20.67;1.77;;;;;;;13.55;100.00;99640.22;5073866;28;20186;-73
2022/06/09 03:07:41;;;;;;;11.30;2.47;;;;;;;13.57;100.00;99638.72;5073156;28;20178;-73
2022/06/09 03:10:07;;;;;;;0.93;0.93;;;;;;;13.59;100.00;99641.91;5073527;28;20547;-74
2022/06/09 03:12:32;;;;;;;2.57;0.37;;;;;;;13.62;100.00;99640.44;5072924;28;20178;-73
2022/06/09 03:14:58;;;;;;;0.23;0.23;;;;;;;13.62;100.00;99641.22;5055610;28;20261;-73
2022/06/09 03:17:25;;;;;;;0.47;0.47;;;;;;;13.65;100.00;99639.72;5073224;28;20229;-74
2022/06/09 03:19:50;;;;;;;5.80;5.33;;;;;;;13.65;100.00;99640.53;5073373;28;20528;-73
2022/06/09 03:22:17;;;;;;;0.53;0.53;;;;;;;13.64;100.00;99636.19;5073437;28;20181;-72
2022/06/09 03:24:42;;;;;;;1.97;1.87;;;;;;;13.63;100.00;99647.53;5073496;28;20205;-73
2022/06/09 03:27:08;;;;;;;0.83;0.83;;;;;;;13.67;100.00;99649.19;5073203;28;20602;-74
2022/06/09 03:29:33;;;;;;;3.73;3.43;;;;;;;13.69;100.00;99651.59;5072747;28;20198;-77
2022/06/09 03:31:58;;;;;;;1.57;1.50;;;;;;;13.63;100.00;99661.25;5073366;28;20187;-73
2022/06/09 03:34:24;;;;;;;0.53;0.53;;;;;;;13.67;100.00;99651.16;5073156;28;20228;-73
2022/06/09 03:36:49;;;;;;;4.27;3.97;;;;;;;13.65;100.00;99665.22;5072833;28;20174;-74
2022/06/09 03:39:14;;;;;;;4.20;3.37;;;;;;;13.60;100.00;99668.25;5073349;28;20183;-72
2022/06/09 03:41:40;;;;;;;14.37;6.50;;;;;;;13.56;100.00;99672.81;5073145;28;20213;-77
2022/06/09 03:44:06;;;;;;;3.73;3.43;;;;;;;13.56;100.00;99666.53;5073083;28;20182;-73
2022/06/09 03:46:31;;;;;;;24.57;5.83;;;;;;;13.53;100.00;99669.97;5072905;28;20189;-74
2022/06/09 03:48:57;;;;;;;9.37;5.93;;;;;;;13.52;100.00;99660.94;5072188;28;20199;-75
2022/06/09 03:51:23;;;;;;;10.30;3.80;;;;;;;13.53;100.00;99665.28;5073051;28;20178;-74
2022/06/09 03:53:48;;;;;;;8.27;5.77;;;;;;;13.54;100.00;99671.56;5073000;28;20182;-74
2022/06/09 03:56:16;;;;;;;11.07;3.00;;;;;;;13.54;100.00;99666.88;5070191;28;20586;-72
2022/06/09 03:58:42;;;;;;;3.20;3.00;;;;;;;13.56;100.00;99683.00;5072174;28;20190;-72
2022/06/09 04:01:13;;;;;;;8.40;4.47;;;;;;;13.59;100.00;99676.78;5072519;28;20179;-73
2022/06/09 04:03:39;;;;;;;6.63;4.20;;;;;;;13.61;100.00;99688.25;5078920;28;20174;-72
2022/06/09 04:06:05;;;;;;;2.73;2.57;;;;;;;13.65;100.00;99694.63;5072649;28;20633;-73
2022/06/09 04:08:30;;;;;;;4.47;4.07;;;;;;;13.66;100.00;99685.25;5072128;28;20166;-72
2022/06/09 04:10:56;;;;;;;1.30;1.30;;;;;;;13.72;100.00;99694.00;5072677;28;20178;-74
2022/06/09 04:13:21;;;;;;;3.67;3.37;;;;;;;13.76;100.00;99709.44;5071741;28;20171;-72
2022/06/09 04:15:47;;;;;;;0.00;0.00;;;;;;;13.80;100.00;99704.06;5072512;28;20171;-74
2022/06/09 04:18:12;;;;;;;12.20;3.03;;;;;;;13.82;100.00;99709.97;5072344;28;20251;-73
2022/06/09 04:20:38;;;;;;;2.03;1.87;;;;;;;13.87;100.00;99706.97;5072501;28;20193;-74
2022/06/09 04:23:03;;;;;;;2.80;2.57;;;;;;;13.87;100.00;99715.22;5072572;28;20235;-75
2022/06/09 04:25:29;;;;;;;11.17;6.57;;;;;;;13.89;100.00;99713.72;5072427;28;20174;-73
2022/06/09 04:27:55;;;;;;;0.00;0.00;;;;;;;13.91;100.00;99710.63;5072171;28;20187;-72
2022/06/09 04:30:21;;;;;;;3.43;3.07;;;;;;;13.98;100.00;99708.84;5072056;28;20661;-74
2022/06/09 04:32:46;;;;;;;0.00;0.00;;;;;;;13.99;100.00;99710.44;5072621;28;20179;-75
2022/06/09 04:35:12;;;;;;;6.17;4.50;;;;;;;14.08;100.00;99715.78;5072765;28;20653;-74
2022/06/09 04:40:24;;;;;;;0.33;0.33;;;;;;;14.16;100.00;99714.00;5072580;28;20672;-72
2022/06/09 04:42:49;;;;;;;0.00;0.00;;;;;;;14.20;100.00;99721.22;5072545;28;20186;-73
2022/06/09 04:45:16;;;;;;;0.00;0.00;;;;;;;14.25;100.00;99718.19;5072132;28;20637;-73
2022/06/09 04:47:41;;;;;;;0.00;0.00;;;;;;;14.24;100.00;99719.34;5071518;28;20175;-73
2022/06/09 04:50:07;;;;;;;0.00;0.00;;;;;;;14.36;100.00;99728.66;5071601;28;20215;-73
2022/06/09 04:52:33;;;;;;;0.23;0.23;;;;;;;14.44;100.00;99730.47;5071895;28;20179;-75
2022/06/09 04:54:59;;;;;;;0.00;0.00;;;;;;;14.46;100.00;99722.66;5071807;28;20178;-73
2022/06/09 04:57:24;;;;;;;15.70;1.33;;;;;;;14.48;100.00;99732.16;5071573;28;20166;-76
2022/06/09 04:59:49;;;;;;;2.10;1.60;;;;;;;14.50;100.00;99737.31;5071327;28;20181;-73
2022/06/09 05:02:15;;;;;;;2.43;2.27;;;;;;;14.46;100.00;99734.44;5071573;28;20220;-73
2022/06/09 05:04:40;;;;;;;7.80;2.10;;;;;;;14.40;100.00;99737.78;5071730;28;20678;-73
2022/06/09 05:07:05;;;;;;;6.57;0.53;;;;;;;14.42;100.00;99747.28;5071478;28;20175;-72
2022/06/09 05:09:31;;;;;;;2.53;2.40;;;;;;;14.38;100.00;99745.59;5071240;28;20285;-73
2022/06/09 05:11:56;;;;;;;2.97;2.77;;;;;;;14.36;100.00;99754.19;5070570;28;20246;-72
2022/06/09 05:14:22;;;;;;;4.10;3.80;;;;;;;14.32;100.00;99758.81;5071380;28;20249;-73
2022/06/09 05:16:47;;;;;;;0.80;0.80;;;;;;;14.32;100.00;99752.50;5071212;28;20179;-73
2022/06/09 05:19:12;;;;;;;2.63;2.50;;;;;;;14.30;100.00;99756.41;5071275;28;20645;-72
2022/06/09 05:21:37;;;;;;;5.07;4.50;;;;;;;14.28;100.00;99763.41;5071275;28;20535;-73
2022/06/09 05:24:03;;;;;;;5.23;4.67;;;;;;;14.29;100.00;99768.53;5071375;28;20209;-74
2022/06/09 05:26:28;;;;;;;3.87;3.63;;;;;;;14.29;100.00;99768.53;5071165;28;20174;-72
2022/06/09 05:28:55;;;;;;;2.60;2.40;;;;;;;14.32;100.00;99766.22;5070885;28;20202;-72
2022/06/09 05:31:20;;;;;;;5.43;4.93;;;;;;;14.35;100.00;99773.78;5071214;28;20527;-72
2022/06/09 05:33:45;;;;;;;3.13;2.93;;;;;;;14.37;100.00;99774.25;5071141;28;20258;-73
2022/06/09 05:36:11;;;;;;;2.20;2.10;;;;;;;14.43;100.00;99779.09;5071124;28;20183;-74
2022/06/09 05:46:48;;;;;;;8.97;8.17;;;;;;;14.59;100.00;99788.19;5070624;28;20197;-72
2022/06/09 05:49:17;;;;;;;4.50;4.20;;;;;;;14.63;100.00;99804.78;5070484;28;20210;-73
2022/06/09 05:51:43;;;;;;;5.60;2.90;;;;;;;14.63;100.00;99807.53;5070866;28;20177;-73
2022/06/09 05:54:09;;;;;;;9.90;5.37;;;;;;;14.63;100.00;99812.25;5070854;28;20269;-74
2022/06/09 05:56:35;;;;;;;5.13;4.67;;;;;;;14.62;100.00;99819.69;5070590;28;20265;-74
2022/06/09 05:59:00;;;;;;;3.40;3.20;;;;;;;14.66;100.00;99822.53;5070712;28;20240;-73
2022/06/09 06:01:25;;;;;;;2.53;2.37;;;;;;;14.69;100.00;99835.56;5070684;28;20170;-72
2022/06/09 06:03:51;;;;;;;5.93;3.87;;;;;;;14.71;100.00;99834.06;5070686;28;20167;-73
2022/06/09 06:06:34;;;;;;;3.40;2.77;;;;;;;14.68;100.00;99834.75;5052593;28;20202;-72
2022/06/09 06:09:05;;;;;;;7.03;5.47;;;;;;;14.68;100.00;99834.75;5070255;28;20693;-73
2022/06/09 06:11:34;;;;;;;5.27;3.83;;;;;;;14.64;100.00;99833.88;5069585;28;20174;-73
2022/06/09 06:14:00;;;;;;;2.57;2.37;;;;;;;14.66;100.00;99839.81;5070812;28;20704;-73
2022/06/09 06:16:26;;;;;;;7.77;6.93;;;;;;;14.66;100.00;99841.78;5070675;28;20228;-73
2022/06/09 06:18:51;;;;;;;5.60;4.90;;;;;;;14.63;100.00;99837.00;5070223;28;20662;-74
2022/06/09 06:21:17;;;;;;;10.53;6.23;;;;;;;14.66;100.00;99848.06;5070659;28;20170;-75
2022/06/09 06:23:43;;;;;;;10.57;4.57;;;;;;;14.64;100.00;99852.34;5070617;28;20210;-74
2022/06/09 06:26:11;;;;;;;14.40;5.63;;;;;;;14.60;100.00;99843.97;5070751;28;20518;-76
2022/06/09 06:28:37;;;;;;;3.50;3.00;;;;;;;14.60;100.00;99857.72;5069819;28;20397;-73
2022/06/09 06:31:02;;;;;;;5.73;4.37;;;;;;;14.56;100.00;99863.13;5070535;28;20182;-76
2022/06/09 06:33:27;;;;;;;5.07;4.63;;;;;;;14.55;100.00;99867.03;5070532;28;20179;-72
2022/06/09 06:35:53;;;;;;;11.70;7.33;;;;;;;14.55;100.00;99869.78;5070869;28;20210;-74
2022/06/09 06:38:18;;;;;;;5.10;4.70;;;;;;;14.59;100.00;99869.88;5070019;28;20206;-76
2022/06/09 06:40:44;;;;;;;7.50;4.47;;;;;;;14.66;100.00;99881.06;5070435;28;20228;-74
2022/06/09 06:43:09;;;;;;;4.37;3.33;;;;;;;14.72;100.00;99882.41;5070413;28;20173;-73
2022/06/09 06:45:34;;;;;;;6.17;4.60;;;;;;;14.76;100.00;99890.75;5070434;28;20167;-73
2022/06/09 06:48:00;;;;;;;2.67;1.53;;;;;;;14.82;100.00;99879.13;5069725;28;20720;-77
2022/06/09 06:50:26;;;;;;;8.90;7.33;;;;;;;14.85;100.00;99897.66;5052229;28;20289;-73
2022/06/09 06:52:51;;;;;;;2.33;2.13;;;;;;;14.86;100.00;99898.47;5070300;28;20539;-76
2022/06/09 06:55:20;;;;;;;0.23;0.20;;;;;;;14.96;100.00;99906.22;5070229;28;20178;-73
2022/06/09 06:57:46;;;;;;;4.37;3.97;;;;;;;14.99;100.00;99905.50;5069941;28;20179;-75
2022/06/09 07:00:16;;;;;;;2.40;2.03;;;;;;;15.00;100.00;99909.84;5070279;28;20699;-80
2022/06/09 07:02:41;;;;;;;5.37;4.97;;;;;;;15.01;100.00;99913.38;5070685;28;20199;-74
2022/06/09 07:05:08;;;;;;;3.10;2.90;;;;;;;15.00;100.00;99928.28;5070492;28;20304;-72
2022/06/09 07:07:34;;;;;;;2.50;2.40;;;;;;;15.00;100.00;99928.28;5067419;28;20179;-75
2022/06/09 07:09:59;;;;;;;3.60;3.40;;;;;;;15.07;100.00;99928.50;5069559;28;20285;-76
2022/06/09 07:12:24;;;;;;;3.17;2.90;;;;;;;15.10;100.00;99934.09;5068993;28;20257;-74
2022/06/09 07:14:50;;;;;;;6.30;5.10;;;;;;;15.08;100.00;99936.41;5052188;28;20175;-75
2022/06/09 07:17:15;;;;;;;11.13;4.10;;;;;;;15.10;100.00;99941.53;5069572;28;20257;-72
2022/06/09 07:19:40;;;;;;;3.53;3.17;;;;;;;15.09;100.00;99945.44;5069732;28;20261;-72
2022/06/09 07:22:06;;;;;;;3.33;1.90;;;;;;;15.07;100.00;99945.00;5070218;28;20614;-74
2022/06/09 07:24:32;;;;;;;1.83;1.73;;;;;;;15.07;100.00;99945.81;5071327;28;20269;-73
2022/06/09 07:26:57;;;;;;;8.10;4.80;;;;;;;15.05;100.00;99948.13;5073193;28;20689;-72
2022/06/09 07:29:25;;;;;;;1.07;1.07;;;;;;;15.06;100.00;99949.72;5072757;28;20194;-75
2022/06/09 07:31:50;;;;;;;2.17;2.07;;;;;;;15.08;100.00;99957.59;5073180;28;20174;-73
2022/06/09 07:34:16;;;;;;;4.80;2.77;;;;;;;15.08;100.00;99950.16;5073405;28;20177;-73
2022/06/09 07:36:41;;;;;;;5.80;4.90;;;;;;;15.08;100.00;99958.41;5072877;28;20639;-73
2022/06/09 07:39:07;;;;;;;4.07;3.77;;;;;;;15.04;100.00;99956.69;5072830;28;20270;-74
2022/06/09 07:41:34;;;;;;;5.03;4.70;;;;;;;15.05;100.00;99956.38;5072986;28;20183;-72
2022/06/09 07:44:02;;;;;;;4.17;3.37;;;;;;;15.17;100.00;99963.72;5072818;28;20183;-75
2022/06/09 07:46:27;;;;;;;7.40;4.40;;;;;;;15.30;100.00;99962.50;5072835;28;20212;-72
2022/06/09 07:48:53;;;;;;;4.93;4.53;;;;;;;15.35;99.75;99965.00;5071151;28;20245;-72
2022/06/09 07:51:18;;;;;;;3.40;3.00;;;;;;;15.42;98.96;99967.13;5072574;28;20190;-73
2022/06/09 07:53:45;;;;;;;5.90;1.93;;;;;;;15.56;100.00;99967.47;5081062;28;20198;-72
2022/06/09 07:56:11;;;;;;;6.60;5.80;;;;;;;15.69;99.20;99973.72;5077414;28;20642;-72
2022/06/09 07:58:36;;;;;;;8.73;5.50;;;;;;;15.74;97.96;99974.22;5071918;28;20221;-72
2022/06/09 08:01:01;;;;;;;10.40;5.17;;;;;;;15.67;96.23;99978.78;5072644;28;20658;-72
2022/06/09 08:03:27;;;;;;;7.13;3.50;;;;;;;15.74;97.22;99970.66;5072257;28;20183;-73
2022/06/09 08:05:53;;;;;;;4.80;4.40;;;;;;;15.76;97.41;99982.91;5071820;28;20185;-73
2022/06/09 08:08:19;;;;;;;6.17;5.70;;;;;;;15.69;96.25;99984.72;5071536;28;20310;-74
2022/06/09 08:10:45;;;;;;;11.17;5.87;;;;;;;15.64;95.47;99987.75;5072424;28;20198;-72
2022/06/09 08:13:11;;;;;;;3.57;3.27;;;;;;;15.60;96.00;99989.59;5075041;28;20316;-72
2022/06/09 08:15:37;;;;;;;5.70;3.70;;;;;;;15.64;97.51;99982.25;5080744;28;20266;-72
2022/06/09 08:18:03;;;;;;;4.70;4.20;;;;;;;15.78;98.04;99988.09;5075979;28;20186;-72
2022/06/09 08:20:32;;;;;;;4.20;3.80;;;;;;;15.86;97.42;99987.09;5072922;28;20182;-72
2022/06/09 08:23:02;;;;;;;2.10;2.00;;;;;;;15.91;96.44;99991.53;5088097;28;20180;-72
2022/06/09 08:25:28;;;;;;;4.60;3.77;;;;;;;15.97;96.04;99995.63;5072377;28;20170;-72
2022/06/09 08:27:53;;;;;;;2.87;2.67;;;;;;;16.09;94.91;100000.22;5072032;28;20540;-72
2022/06/09 08:30:19;;;;;;;7.37;6.47;;;;;;;16.21;94.23;99998.16;5071635;28;20195;-72
2022/06/09 08:32:45;;;;;;;2.23;2.13;;;;;;;16.48;94.13;100003.81;5072200;28;20167;-72
2022/06/09 08:35:15;;;;;;;3.30;3.10;;;;;;;16.77;93.92;100014.31;5071235;28;20270;-72
2022/06/09 08:37:42;;;;;;;3.17;2.97;;;;;;;16.69;90.78;100015.34;5071481;28;20642;-72
2022/06/09 08:40:12;;;;;;;4.90;2.23;;;;;;;16.84;91.24;100016.44;5072284;28;20181;-72
2022/06/09 08:42:52;;;;;;;4.90;3.33;;;;;;;16.80;90.79;100023.84;5071816;28;20167;-71
2022/06/09 08:45:27;;;;;;;13.60;3.77;;;;;;;16.77;88.98;100032.81;5071891;28;20170;-72
2022/06/09 08:47:55;;;;;;;3.47;3.17;;;;;;;16.68;88.43;100032.25;5071223;28;20182;-72
2022/06/09 08:50:26;;;;;;;3.73;3.30;;;;;;;16.62;89.81;100039.97;5071739;28;20202;-73
2022/06/09 08:53:05;;;;;;;3.67;3.10;;;;;;;16.59;89.72;100041.50;5071529;28;20532;-72
2022/06/09 08:55:47;;;;;;;5.77;3.57;;;;;;;16.55;90.17;100037.88;5068599;28;20273;-74
2022/06/09 08:58:22;;;;;;;7.23;2.83;;;;;;;16.55;91.01;100039.84;5063672;28;20190;-72
2022/06/09 09:01:10;;;;;;;2.23;2.03;;;;;;;16.55;89.25;100039.84;5085016;28;20182;-72
2022/06/09 09:03:43;;;;;;;4.90;3.47;;;;;;;16.66;89.38;100038.09;5071276;28;20174;-72
2022/06/09 09:06:24;;;;;;;1.57;1.47;;;;;;;16.82;89.10;100035.31;5071553;28;20182;-73
2022/06/09 09:08:51;;;;;;;4.40;4.00;;;;;;;16.87;87.70;100046.84;5053043;28;20202;-72
2022/06/09 09:11:30;;;;;;;1.47;1.43;;;;;;;16.90;87.62;100048.06;5071369;28;20182;-72
2022/06/09 09:14:12;;;;;;;2.23;2.03;;;;;;;16.98;88.24;100046.25;5071133;28;20522;-72
2022/06/09 09:16:49;;;;;;;2.87;2.67;;;;;;;16.90;87.77;100056.34;5071238;28;20174;-72
2022/06/09 09:19:53;;;;;;;1.20;0.93;;;;;;;16.73;88.13;100057.59;5071117;28;20174;-72
2022/06/09 09:22:52;;;;;;;2.37;2.17;;;;;;;16.71;90.82;100062.66;5071038;28;20204;-72
2022/06/09 09:25:27;;;;;;;2.93;2.73;;;;;;;16.69;88.54;100065.00;5071126;28;20181;-72
2022/06/09 09:28:15;;;;;;;2.90;2.53;;;;;;;16.78;88.74;100064.75;5070581;28;20173;-72
2022/06/09 09:31:07;;;;;;;3.80;3.60;;;;;;;16.80;88.25;100071.53;5071275;28;20241;-73
2022/06/09 09:33:33;;;;;;;5.33;2.07;;;;;;;16.82;89.13;100065.66;5052351;28;20190;-72
2022/06/09 09:36:02;;;;;;;2.87;2.73;;;;;;;16.81;89.23;100064.88;5070924;28;20635;-72
2022/06/09 09:38:55;;;;;;;1.77;1.33;;;;;;;17.19;89.41;100071.50;5070191;28;20217;-73
2022/06/09 09:41:27;;;;;;;2.43;2.33;;;;;;;17.44;87.05;100063.72;5053030;28;20705;-72
2022/06/09 09:43:53;;;;;;;2.20;2.10;;;;;;;17.55;88.13;100070.22;5070655;28;20253;-72
2022/06/09 09:46:32;;;;;;;2.37;2.27;;;;;;;17.19;87.17;100069.56;5070189;28;20670;-72
2022/06/09 09:49:00;;;;;;;3.37;3.17;;;;;;;17.11;88.12;100070.59;5070064;28;20281;-72
2022/06/09 09:51:35;;;;;;;6.57;2.70;;;;;;;17.11;88.14;100076.13;5070545;28;20231;-72
2022/06/09 09:54:09;;;;;;;3.30;3.10;;;;;;;17.14;87.81;100071.81;5070688;28;20162;-72
2022/06/09 09:56:37;;;;;;;5.37;4.87;;;;;;;17.39;86.73;100077.81;5070515;28;20264;-72
2022/06/09 09:59:18;;;;;;;2.30;2.10;;;;;;;17.53;84.63;100076.13;5070190;28;20244;-72
2022/06/09 10:10:06;;;;;;;4.57;2.93;;;;;;;18.31;79.33;100097.97;5070129;28;20612;-73
2022/06/09 10:12:34;;;;;;;2.23;2.13;;;;;;;18.20;78.45;100095.03;5069799;28;20309;-72
2022/06/09 10:15:08;;;;;;;2.43;2.23;;;;;;;18.09;78.78;100100.41;5052378;28;20613;-73
2022/06/09 10:17:44;;;;;;;2.90;2.67;;;;;;;18.27;79.46;100108.97;5051969;28;20182;-72
2022/06/09 10:20:27;;;;;;;2.13;2.03;;;;;;;18.12;77.81;100094.13;5070298;28;20178;-73
2022/06/09 10:22:55;;;;;;;10.73;1.63;;;;;;;18.50;78.79;100091.50;5070352;28;20174;-72
2022/06/09 10:25:31;;;;;;;4.47;1.47;;;;;;;18.54;76.23;100098.72;5070268;28;20210;-72
2022/06/09 10:28:06;;;;;;;2.23;1.80;;;;;;;18.34;78.02;100100.78;5069813;28;20177;-72
2022/06/09 10:30:48;;;;;;;3.47;3.17;;;;;;;18.22;79.36;100097.41;5070189;28;20209;-72
2022/06/09 10:33:43;;;;;;;2.10;2.00;;;;;;;18.05;79.46;100101.50;5070430;28;20202;-72
2022/06/09 10:36:16;;;;;;;2.23;2.13;;;;;;;18.30;79.79;100110.19;5070280;28;20196;-72
2022/06/09 10:38:48;;;;;;;0.97;0.97;;;;;;;18.74;77.25;100110.47;5069527;28;20171;-73
2022/06/09 10:41:20;;;;;;;3.70;3.40;;;;;;;18.86;76.58;100115.00;5070132;28;20175;-73
2022/06/09 10:43:57;;;;;;;26.70;3.00;;;;;;;18.85;75.94;100111.44;5070140;28;20159;-73
2022/06/09 10:46:31;;;;;;;2.70;2.57;;;;;;;18.98;76.08;100121.09;5069932;28;20626;-73
2022/06/09 10:55:14;;;;;;;1.43;1.30;;;;;;;18.63;74.16;100126.94;5068579;28;20180;-72
2022/06/09 10:57:49;;;;;;;0.73;0.57;;;;;;;18.88;73.35;100126.47;5065557;28;20217;-73
2022/06/09 11:00:28;;;;;;;2.43;2.33;;;;;;;19.14;73.25;100134.75;5066568;28;20192;-73
2022/06/09 11:02:57;;;;;;;2.07;1.90;;;;;;;19.20;72.13;100135.19;5073689;28;20178;-73
2022/06/09 11:05:48;;;;;;;0.67;0.67;;;;;;;19.43;72.02;100124.78;5073681;28;20198;-72
2022/06/09 11:08:26;;;;;;;8.33;1.20;;;;;;;19.58;71.52;100118.25;5073232;28;20265;-72
2022/06/09 11:11:05;;;;;;;0.50;0.47;;;;;;;19.61;73.31;100127.78;5073501;28;20206;-73
2022/06/09 11:13:36;;;;;;;1.97;1.83;;;;;;;19.18;73.02;100137.53;5072535;28;20170;-72
2022/06/09 11:16:18;;;;;;;1.70;1.60;;;;;;;18.98;73.58;100136.91;5073711;28;20174;-72
2022/06/09 11:19:07;;;;;;;2.17;2.07;;;;;;;18.98;73.68;100140.47;5072975;28;20212;-72
2022/06/09 11:21:53;;;;;;;1.30;1.30;;;;;;;19.47;74.57;100133.94;5073567;28;20166;-73
2022/06/09 11:24:45;;;;;;;2.03;1.87;;;;;;;19.72;72.96;100139.00;5073465;28;20258;-72
2022/06/09 11:27:39;;;;;;;1.40;1.30;;;;;;;19.67;72.59;100142.09;5073456;28;20588;-73
2022/06/09 11:30:13;;;;;;;1.00;1.00;;;;;;;19.65;70.89;100142.47;5073163;28;20190;-73
2022/06/09 11:32:46;;;;;;;1.90;1.80;;;;;;;19.63;70.39;100144.81;5073440;28;20261;-72
2022/06/09 11:35:25;;;;;;;3.50;2.33;;;;;;;19.27;72.05;100158.25;5073109;28;20240;-73
2022/06/09 11:38:20;;;;;;;0.83;0.83;;;;;;;18.85;71.72;100152.94;5072675;28;20180;-73
2022/06/09 11:41:10;;;;;;;0.50;0.50;;;;;;;18.65;69.82;100143.16;5051161;28;20248;-72
2022/06/09 11:44:22;;;;;;;0.50;0.50;;;;;;;18.58;70.45;100154.09;5072937;28;20214;-74
2022/06/09 11:46:51;;;;;;;0.87;0.87;;;;;;;18.95;72.08;100157.84;5068365;28;20568;-73
2022/06/09 11:49:33;;;;;;;0.30;0.30;;;;;;;19.10;72.46;100150.53;5072499;28;20206;-73
2022/06/09 11:52:05;;;;;;;0.13;0.13;;;;;;;19.18;71.34;100157.72;5072842;28;20244;-73
2022/06/09 11:54:42;;;;;;;0.30;0.30;;;;;;;19.19;70.44;100153.00;5054616;28;20178;-74
2022/06/09 11:57:27;;;;;;;0.70;0.70;;;;;;;19.51;71.47;100156.94;5072701;28;20631;-73
2022/06/09 12:00:12;;;;;;;1.30;1.30;;;;;;;19.69;69.73;100165.50;5072549;28;20179;-73
2022/06/09 12:02:41;;;;;;;0.87;0.87;;;;;;;19.46;69.56;100171.13;5055045;28;20190;-73
2022/06/09 12:05:19;;;;;;;0.37;0.37;;;;;;;19.48;69.78;100173.53;5072310;28;20185;-72